sensor_id;sensor_type;location;lat;lon;timestamp;P1;durP1;ratioP1;P2;durP2;ratioP2
17283;SDS011;8760;52.248;20.952;2023-02-28T00:00:22;22.63;;;10.77;;
17283;SDS011;8760;52.248;20.952;2023-02-28T00:02:50;21.27;;;10.50;;
17283;SDS011;8760;52.248;20.952;2023-02-28T00:05:18;20.70;;;10.33;;
17283;SDS011;8760;52.248;20.952;2023-02-28T00:07:48;22.57;;;10.93;;
17283;SDS011;8760;52.248;20.952;2023-02-28T00:10:16;17.50;;;10.03;;
17283;SDS011;8760;52.248;20.952;2023-02-28T00:12:45;21.23;;;10.17;;
17283;SDS011;8760;52.248;20.952;2023-02-28T00:15:13;22.57;;;11.67;;
17283;SDS011;8760;52.248;20.952;2023-02-28T00:17:40;19.90;;;10.43;;
17283;SDS011;8760;52.248;20.952;2023-02-28T00:20:07;21.00;;;10.17;;
17283;SDS011;8760;52.248;20.952;2023-02-28T00:22:37;18.83;;;10.23;;
17283;SDS011;8760;52.248;20.952;2023-02-28T00:25:07;18.37;;;10.50;;
17283;SDS011;8760;52.248;20.952;2023-02-28T00:27:34;20.80;;;10.17;;
17283;SDS011;8760;52.248;20.952;2023-02-28T00:30:02;19.67;;;10.13;;
17283;SDS011;8760;52.248;20.952;2023-02-28T00:32:30;19.80;;;9.90;;
17283;SDS011;8760;52.248;20.952;2023-02-28T00:34:57;18.20;;;9.77;;
17283;SDS011;8760;52.248;20.952;2023-02-28T00:37:24;20.60;;;10.53;;
17283;SDS011;8760;52.248;20.952;2023-02-28T00:39:51;16.20;;;8.80;;
17283;SDS011;8760;52.248;20.952;2023-02-28T00:42:19;21.73;;;9.80;;
17283;SDS011;8760;52.248;20.952;2023-02-28T00:44:46;22.20;;;10.40;;
17283;SDS011;8760;52.248;20.952;2023-02-28T00:47:13;19.53;;;9.47;;
17283;SDS011;8760;52.248;20.952;2023-02-28T00:49:40;19.47;;;11.10;;
17283;SDS011;8760;52.248;20.952;2023-02-28T00:52:07;21.77;;;10.17;;
17283;SDS011;8760;52.248;20.952;2023-02-28T00:54:34;26.10;;;11.03;;
17283;SDS011;8760;52.248;20.952;2023-02-28T00:57:02;23.97;;;10.57;;
17283;SDS011;8760;52.248;20.952;2023-02-28T00:59:30;18.00;;;9.80;;
17283;SDS011;8760;52.248;20.952;2023-02-28T01:01:57;19.07;;;9.90;;
17283;SDS011;8760;52.248;20.952;2023-02-28T01:04:24;24.57;;;10.27;;
17283;SDS011;8760;52.248;20.952;2023-02-28T01:06:51;17.40;;;9.67;;
17283;SDS011;8760;52.248;20.952;2023-02-28T01:09:18;16.47;;;9.20;;
17283;SDS011;8760;52.248;20.952;2023-02-28T01:11:45;19.93;;;9.67;;
17283;SDS011;8760;52.248;20.952;2023-02-28T01:14:13;18.37;;;9.17;;
17283;SDS011;8760;52.248;20.952;2023-02-28T01:16:42;22.00;;;11.07;;
17283;SDS011;8760;52.248;20.952;2023-02-28T01:19:09;21.20;;;10.40;;
17283;SDS011;8760;52.248;20.952;2023-02-28T01:21:36;23.73;;;11.13;;
17283;SDS011;8760;52.248;20.952;2023-02-28T01:24:03;24.07;;;11.17;;
17283;SDS011;8760;52.248;20.952;2023-02-28T01:26:31;33.80;;;14.60;;
17283;SDS011;8760;52.248;20.952;2023-02-28T01:28:58;38.07;;;16.67;;
17283;SDS011;8760;52.248;20.952;2023-02-28T01:31:25;37.80;;;16.40;;
17283;SDS011;8760;52.248;20.952;2023-02-28T01:33:53;33.77;;;15.57;;
17283;SDS011;8760;52.248;20.952;2023-02-28T01:36:21;20.60;;;9.90;;
17283;SDS011;8760;52.248;20.952;2023-02-28T01:38:49;17.13;;;9.93;;
17283;SDS011;8760;52.248;20.952;2023-02-28T01:41:17;16.43;;;9.00;;
17283;SDS011;8760;52.248;20.952;2023-02-28T01:43:53;16.93;;;8.60;;
17283;SDS011;8760;52.248;20.952;2023-02-28T01:46:22;15.53;;;8.30;;
17283;SDS011;8760;52.248;20.952;2023-02-28T01:48:51;13.80;;;7.80;;
17283;SDS011;8760;52.248;20.952;2023-02-28T01:51:25;15.43;;;8.27;;
17283;SDS011;8760;52.248;20.952;2023-02-28T01:53:56;16.23;;;7.80;;
17283;SDS011;8760;52.248;20.952;2023-02-28T01:56:26;13.93;;;7.87;;
17283;SDS011;8760;52.248;20.952;2023-02-28T01:58:56;16.07;;;8.30;;
17283;SDS011;8760;52.248;20.952;2023-02-28T02:01:24;13.37;;;7.60;;
17283;SDS011;8760;52.248;20.952;2023-02-28T02:03:55;14.07;;;7.37;;
17283;SDS011;8760;52.248;20.952;2023-02-28T02:06:24;13.83;;;7.93;;
17283;SDS011;8760;52.248;20.952;2023-02-28T02:08:55;14.60;;;7.87;;
17283;SDS011;8760;52.248;20.952;2023-02-28T02:11:23;12.33;;;7.30;;
17283;SDS011;8760;52.248;20.952;2023-02-28T02:13:58;12.27;;;7.37;;
17283;SDS011;8760;52.248;20.952;2023-02-28T02:16:45;13.47;;;7.53;;
17283;SDS011;8760;52.248;20.952;2023-02-28T02:19:37;13.40;;;7.90;;
17283;SDS011;8760;52.248;20.952;2023-02-28T02:22:32;15.77;;;7.80;;
17283;SDS011;8760;52.248;20.952;2023-02-28T02:25:22;13.37;;;7.03;;
17283;SDS011;8760;52.248;20.952;2023-02-28T02:27:59;16.63;;;8.13;;
17283;SDS011;8760;52.248;20.952;2023-02-28T02:31:03;12.37;;;7.40;;
17283;SDS011;8760;52.248;20.952;2023-02-28T02:36:42;13.90;;;7.50;;
17283;SDS011;8760;52.248;20.952;2023-02-28T02:39:15;12.23;;;7.53;;
17283;SDS011;8760;52.248;20.952;2023-02-28T02:41:46;13.17;;;7.47;;
17283;SDS011;8760;52.248;20.952;2023-02-28T02:44:18;13.80;;;7.67;;
17283;SDS011;8760;52.248;20.952;2023-02-28T02:46:50;14.57;;;7.57;;
17283;SDS011;8760;52.248;20.952;2023-02-28T02:49:20;16.57;;;8.27;;
17283;SDS011;8760;52.248;20.952;2023-02-28T02:51:51;17.10;;;8.27;;
17283;SDS011;8760;52.248;20.952;2023-02-28T02:54:22;16.63;;;8.53;;
17283;SDS011;8760;52.248;20.952;2023-02-28T02:56:54;16.57;;;8.93;;
17283;SDS011;8760;52.248;20.952;2023-02-28T02:59:23;17.93;;;8.27;;
17283;SDS011;8760;52.248;20.952;2023-02-28T03:01:54;20.20;;;9.03;;
17283;SDS011;8760;52.248;20.952;2023-02-28T03:04:24;17.13;;;9.43;;
17283;SDS011;8760;52.248;20.952;2023-02-28T03:06:56;17.80;;;9.70;;
17283;SDS011;8760;52.248;20.952;2023-02-28T03:09:23;19.40;;;9.73;;
17283;SDS011;8760;52.248;20.952;2023-02-28T03:11:52;23.33;;;9.90;;
17283;SDS011;8760;52.248;20.952;2023-02-28T03:14:31;20.47;;;9.87;;
17283;SDS011;8760;52.248;20.952;2023-02-28T03:17:25;23.33;;;9.87;;
17283;SDS011;8760;52.248;20.952;2023-02-28T03:20:07;20.37;;;9.93;;
17283;SDS011;8760;52.248;20.952;2023-02-28T03:22:47;20.87;;;10.57;;
17283;SDS011;8760;52.248;20.952;2023-02-28T03:25:20;19.63;;;9.87;;
17283;SDS011;8760;52.248;20.952;2023-02-28T03:27:55;23.00;;;10.60;;
17283;SDS011;8760;52.248;20.952;2023-02-28T03:30:33;22.30;;;11.23;;
17283;SDS011;8760;52.248;20.952;2023-02-28T03:33:05;23.20;;;11.50;;
17283;SDS011;8760;52.248;20.952;2023-02-28T03:35:36;27.83;;;11.80;;
17283;SDS011;8760;52.248;20.952;2023-02-28T03:38:07;21.17;;;11.00;;
17283;SDS011;8760;52.248;20.952;2023-02-28T03:40:39;23.77;;;11.40;;
17283;SDS011;8760;52.248;20.952;2023-02-28T03:43:12;27.30;;;11.73;;
17283;SDS011;8760;52.248;20.952;2023-02-28T03:45:44;22.53;;;12.00;;
17283;SDS011;8760;52.248;20.952;2023-02-28T03:48:13;26.70;;;11.53;;
17283;SDS011;8760;52.248;20.952;2023-02-28T03:50:45;24.93;;;12.07;;
17283;SDS011;8760;52.248;20.952;2023-02-28T03:53:18;23.07;;;11.40;;
17283;SDS011;8760;52.248;20.952;2023-02-28T03:55:48;26.23;;;11.93;;
17283;SDS011;8760;52.248;20.952;2023-02-28T03:58:21;30.27;;;11.83;;
17283;SDS011;8760;52.248;20.952;2023-02-28T04:00:55;24.97;;;11.20;;
17283;SDS011;8760;52.248;20.952;2023-02-28T04:03:32;26.67;;;12.30;;
17283;SDS011;8760;52.248;20.952;2023-02-28T04:06:00;23.40;;;11.33;;
17283;SDS011;8760;52.248;20.952;2023-02-28T04:08:29;21.67;;;11.37;;
17283;SDS011;8760;52.248;20.952;2023-02-28T04:10:58;23.67;;;11.40;;
17283;SDS011;8760;52.248;20.952;2023-02-28T04:13:29;22.83;;;11.73;;
17283;SDS011;8760;52.248;20.952;2023-02-28T04:15:56;23.10;;;10.47;;
17283;SDS011;8760;52.248;20.952;2023-02-28T04:18:23;22.47;;;10.90;;
17283;SDS011;8760;52.248;20.952;2023-02-28T04:20:50;26.37;;;10.77;;
17283;SDS011;8760;52.248;20.952;2023-02-28T04:23:17;24.40;;;11.97;;
17283;SDS011;8760;52.248;20.952;2023-02-28T04:25:46;22.60;;;11.60;;
17283;SDS011;8760;52.248;20.952;2023-02-28T04:28:13;21.80;;;11.00;;
17283;SDS011;8760;52.248;20.952;2023-02-28T04:30:40;26.77;;;12.17;;
17283;SDS011;8760;52.248;20.952;2023-02-28T04:33:06;24.30;;;12.30;;
17283;SDS011;8760;52.248;20.952;2023-02-28T04:35:33;22.50;;;11.40;;
17283;SDS011;8760;52.248;20.952;2023-02-28T04:38:00;26.27;;;12.17;;
17283;SDS011;8760;52.248;20.952;2023-02-28T04:40:27;25.67;;;11.93;;
17283;SDS011;8760;52.248;20.952;2023-02-28T04:42:55;22.50;;;12.57;;
17283;SDS011;8760;52.248;20.952;2023-02-28T04:45:22;21.73;;;11.20;;
17283;SDS011;8760;52.248;20.952;2023-02-28T04:47:49;25.43;;;11.43;;
17283;SDS011;8760;52.248;20.952;2023-02-28T04:50:16;26.20;;;12.53;;
17283;SDS011;8760;52.248;20.952;2023-02-28T04:52:43;22.30;;;11.13;;
17283;SDS011;8760;52.248;20.952;2023-02-28T04:55:10;24.40;;;12.63;;
17283;SDS011;8760;52.248;20.952;2023-02-28T04:57:37;26.33;;;13.30;;
17283;SDS011;8760;52.248;20.952;2023-02-28T05:00:06;23.90;;;12.87;;
17283;SDS011;8760;52.248;20.952;2023-02-28T05:02:36;25.60;;;12.37;;
17283;SDS011;8760;52.248;20.952;2023-02-28T05:05:04;25.17;;;12.47;;
17283;SDS011;8760;52.248;20.952;2023-02-28T05:07:32;25.67;;;12.63;;
17283;SDS011;8760;52.248;20.952;2023-02-28T05:09:59;28.17;;;13.13;;
17283;SDS011;8760;52.248;20.952;2023-02-28T05:12:25;25.80;;;13.30;;
17283;SDS011;8760;52.248;20.952;2023-02-28T05:14:52;24.30;;;12.53;;
17283;SDS011;8760;52.248;20.952;2023-02-28T05:17:21;24.97;;;12.67;;
17283;SDS011;8760;52.248;20.952;2023-02-28T05:19:48;27.37;;;13.13;;
17283;SDS011;8760;52.248;20.952;2023-02-28T05:22:15;27.50;;;13.00;;
17283;SDS011;8760;52.248;20.952;2023-02-28T05:24:42;24.17;;;12.53;;
17283;SDS011;8760;52.248;20.952;2023-02-28T05:27:09;27.03;;;13.63;;
17283;SDS011;8760;52.248;20.952;2023-02-28T05:29:36;28.87;;;14.67;;
17283;SDS011;8760;52.248;20.952;2023-02-28T05:32:08;31.13;;;14.27;;
17283;SDS011;8760;52.248;20.952;2023-02-28T05:34:37;27.10;;;13.43;;
17283;SDS011;8760;52.248;20.952;2023-02-28T05:37:04;24.77;;;14.17;;
17283;SDS011;8760;52.248;20.952;2023-02-28T05:39:32;26.10;;;13.57;;
17283;SDS011;8760;52.248;20.952;2023-02-28T05:41:59;28.10;;;13.83;;
17283;SDS011;8760;52.248;20.952;2023-02-28T05:44:26;28.73;;;13.00;;
17283;SDS011;8760;52.248;20.952;2023-02-28T05:46:53;35.23;;;14.17;;
17283;SDS011;8760;52.248;20.952;2023-02-28T05:49:20;32.50;;;14.67;;
17283;SDS011;8760;52.248;20.952;2023-02-28T05:51:59;35.33;;;14.27;;
17283;SDS011;8760;52.248;20.952;2023-02-28T05:54:26;32.93;;;15.57;;
17283;SDS011;8760;52.248;20.952;2023-02-28T05:56:53;34.90;;;14.93;;
17283;SDS011;8760;52.248;20.952;2023-02-28T05:59:20;27.50;;;15.17;;
17283;SDS011;8760;52.248;20.952;2023-02-28T06:01:47;33.10;;;16.20;;
17283;SDS011;8760;52.248;20.952;2023-02-28T06:04:14;29.97;;;16.13;;
17283;SDS011;8760;52.248;20.952;2023-02-28T06:06:44;34.33;;;16.30;;
17283;SDS011;8760;52.248;20.952;2023-02-28T06:09:12;31.43;;;16.00;;
17283;SDS011;8760;52.248;20.952;2023-02-28T06:11:39;33.17;;;15.97;;
17283;SDS011;8760;52.248;20.952;2023-02-28T06:14:06;35.83;;;17.10;;
17283;SDS011;8760;52.248;20.952;2023-02-28T06:16:34;37.77;;;17.23;;
17283;SDS011;8760;52.248;20.952;2023-02-28T06:19:02;38.07;;;16.90;;
17283;SDS011;8760;52.248;20.952;2023-02-28T06:21:33;36.53;;;17.47;;
17283;SDS011;8760;52.248;20.952;2023-02-28T06:24:00;34.13;;;17.53;;
17283;SDS011;8760;52.248;20.952;2023-02-28T06:26:28;32.87;;;17.53;;
17283;SDS011;8760;52.248;20.952;2023-02-28T06:28:55;41.23;;;18.53;;
17283;SDS011;8760;52.248;20.952;2023-02-28T06:31:22;40.30;;;18.37;;
17283;SDS011;8760;52.248;20.952;2023-02-28T06:33:50;39.57;;;17.23;;
17283;SDS011;8760;52.248;20.952;2023-02-28T06:36:18;38.57;;;18.23;;
17283;SDS011;8760;52.248;20.952;2023-02-28T06:38:45;50.97;;;17.63;;
17283;SDS011;8760;52.248;20.952;2023-02-28T06:41:19;36.53;;;17.70;;
17283;SDS011;8760;52.248;20.952;2023-02-28T06:43:48;35.73;;;16.90;;
17283;SDS011;8760;52.248;20.952;2023-02-28T06:46:16;36.80;;;17.40;;
17283;SDS011;8760;52.248;20.952;2023-02-28T06:48:43;37.87;;;16.77;;
17283;SDS011;8760;52.248;20.952;2023-02-28T06:51:12;31.80;;;16.13;;
17283;SDS011;8760;52.248;20.952;2023-02-28T06:53:41;33.50;;;15.30;;
17283;SDS011;8760;52.248;20.952;2023-02-28T06:56:09;30.20;;;14.50;;
17283;SDS011;8760;52.248;20.952;2023-02-28T06:58:37;27.20;;;13.97;;
17283;SDS011;8760;52.248;20.952;2023-02-28T07:01:06;29.87;;;14.13;;
17283;SDS011;8760;52.248;20.952;2023-02-28T07:03:34;21.63;;;11.40;;
17283;SDS011;8760;52.248;20.952;2023-02-28T07:06:02;23.27;;;12.20;;
17283;SDS011;8760;52.248;20.952;2023-02-28T07:08:30;19.60;;;10.37;;
17283;SDS011;8760;52.248;20.952;2023-02-28T07:10:57;20.40;;;9.97;;
17283;SDS011;8760;52.248;20.952;2023-02-28T07:13:24;14.17;;;7.50;;
17283;SDS011;8760;52.248;20.952;2023-02-28T07:15:55;12.23;;;6.70;;
17283;SDS011;8760;52.248;20.952;2023-02-28T07:18:25;13.63;;;6.93;;
17283;SDS011;8760;52.248;20.952;2023-02-28T07:20:52;10.60;;;6.10;;
17283;SDS011;8760;52.248;20.952;2023-02-28T07:23:20;10.57;;;5.77;;
17283;SDS011;8760;52.248;20.952;2023-02-28T07:25:47;10.97;;;6.60;;
17283;SDS011;8760;52.248;20.952;2023-02-28T07:28:16;13.33;;;7.70;;
17283;SDS011;8760;52.248;20.952;2023-02-28T07:30:43;13.70;;;7.53;;
17283;SDS011;8760;52.248;20.952;2023-02-28T07:33:10;10.40;;;6.70;;
17283;SDS011;8760;52.248;20.952;2023-02-28T07:35:38;8.97;;;5.53;;
17283;SDS011;8760;52.248;20.952;2023-02-28T07:38:05;12.73;;;6.07;;
17283;SDS011;8760;52.248;20.952;2023-02-28T07:40:33;8.17;;;5.00;;
17283;SDS011;8760;52.248;20.952;2023-02-28T07:43:01;8.37;;;5.27;;
17283;SDS011;8760;52.248;20.952;2023-02-28T07:45:29;6.80;;;4.50;;
17283;SDS011;8760;52.248;20.952;2023-02-28T07:47:56;8.10;;;4.93;;
17283;SDS011;8760;52.248;20.952;2023-02-28T07:50:23;6.13;;;4.07;;
17283;SDS011;8760;52.248;20.952;2023-02-28T07:52:52;6.00;;;3.80;;
17283;SDS011;8760;52.248;20.952;2023-02-28T07:55:18;5.73;;;3.67;;
17283;SDS011;8760;52.248;20.952;2023-02-28T07:57:45;6.87;;;4.40;;
17283;SDS011;8760;52.248;20.952;2023-02-28T08:00:13;9.23;;;4.87;;
17283;SDS011;8760;52.248;20.952;2023-02-28T08:02:40;10.03;;;4.80;;
17283;SDS011;8760;52.248;20.952;2023-02-28T08:05:08;5.87;;;4.60;;
17283;SDS011;8760;52.248;20.952;2023-02-28T08:07:35;9.10;;;4.60;;
17283;SDS011;8760;52.248;20.952;2023-02-28T08:10:03;9.47;;;4.73;;
17283;SDS011;8760;52.248;20.952;2023-02-28T08:12:31;6.80;;;4.87;;
17283;SDS011;8760;52.248;20.952;2023-02-28T08:14:58;9.67;;;5.40;;
17283;SDS011;8760;52.248;20.952;2023-02-28T08:17:25;7.73;;;5.47;;
17283;SDS011;8760;52.248;20.952;2023-02-28T08:19:52;8.83;;;5.60;;
17283;SDS011;8760;52.248;20.952;2023-02-28T08:22:19;8.90;;;6.03;;
17283;SDS011;8760;52.248;20.952;2023-02-28T08:24:46;8.83;;;5.80;;
17283;SDS011;8760;52.248;20.952;2023-02-28T08:27:15;9.50;;;6.20;;
17283;SDS011;8760;52.248;20.952;2023-02-28T08:29:42;14.70;;;6.73;;
17283;SDS011;8760;52.248;20.952;2023-02-28T08:32:09;8.63;;;6.28;;
17283;SDS011;8760;52.248;20.952;2023-02-28T08:34:38;11.95;;;6.68;;
17283;SDS011;8760;52.248;20.952;2023-02-28T08:37:06;9.15;;;6.40;;
17283;SDS011;8760;52.248;20.952;2023-02-28T08:39:33;10.75;;;5.80;;
17283;SDS011;8760;52.248;20.952;2023-02-28T08:42:00;10.38;;;6.72;;
17283;SDS011;8760;52.248;20.952;2023-02-28T08:44:29;9.77;;;7.00;;
17283;SDS011;8760;52.248;20.952;2023-02-28T08:46:56;7.55;;;6.55;;
17283;SDS011;8760;52.248;20.952;2023-02-28T08:49:22;10.07;;;6.93;;
17283;SDS011;8760;52.248;20.952;2023-02-28T08:51:49;9.88;;;6.50;;
17283;SDS011;8760;52.248;20.952;2023-02-28T08:54:17;8.38;;;6.28;;
17283;SDS011;8760;52.248;20.952;2023-02-28T08:56:44;10.45;;;6.57;;
17283;SDS011;8760;52.248;20.952;2023-02-28T08:59:12;8.88;;;6.35;;
17283;SDS011;8760;52.248;20.952;2023-02-28T09:01:41;11.50;;;6.63;;
17283;SDS011;8760;52.248;20.952;2023-02-28T09:04:08;10.82;;;6.75;;
17283;SDS011;8760;52.248;20.952;2023-02-28T09:06:36;11.27;;;6.72;;
17283;SDS011;8760;52.248;20.952;2023-02-28T09:09:03;7.55;;;6.72;;
17283;SDS011;8760;52.248;20.952;2023-02-28T09:11:32;9.20;;;6.43;;
17283;SDS011;8760;52.248;20.952;2023-02-28T09:14:00;8.60;;;6.75;;
17283;SDS011;8760;52.248;20.952;2023-02-28T09:16:28;9.77;;;6.47;;
17283;SDS011;8760;52.248;20.952;2023-02-28T09:18:58;9.75;;;7.03;;
17283;SDS011;8760;52.248;20.952;2023-02-28T09:21:25;11.85;;;7.43;;
17283;SDS011;8760;52.248;20.952;2023-02-28T09:23:52;7.43;;;6.28;;
17283;SDS011;8760;52.248;20.952;2023-02-28T09:26:20;10.98;;;6.38;;
17283;SDS011;8760;52.248;20.952;2023-02-28T09:28:49;10.65;;;7.38;;
17283;SDS011;8760;52.248;20.952;2023-02-28T09:31:17;14.73;;;7.32;;
17283;SDS011;8760;52.248;20.952;2023-02-28T09:33:46;10.90;;;6.90;;
17283;SDS011;8760;52.248;20.952;2023-02-28T09:36:15;8.88;;;6.72;;
17283;SDS011;8760;52.248;20.952;2023-02-28T09:38:42;10.43;;;6.43;;
17283;SDS011;8760;52.248;20.952;2023-02-28T09:41:11;12.43;;;7.32;;
17283;SDS011;8760;52.248;20.952;2023-02-28T09:43:41;11.20;;;7.07;;
17283;SDS011;8760;52.248;20.952;2023-02-28T09:46:14;9.40;;;7.00;;
17283;SDS011;8760;52.248;20.952;2023-02-28T09:48:51;9.85;;;6.95;;
17283;SDS011;8760;52.248;20.952;2023-02-28T09:51:29;13.13;;;7.13;;
17283;SDS011;8760;52.248;20.952;2023-02-28T09:54:03;11.15;;;6.70;;
17283;SDS011;8760;52.248;20.952;2023-02-28T09:56:33;12.98;;;7.10;;
17283;SDS011;8760;52.248;20.952;2023-02-28T09:59:06;9.02;;;6.72;;
17283;SDS011;8760;52.248;20.952;2023-02-28T10:01:45;10.85;;;6.90;;
17283;SDS011;8760;52.248;20.952;2023-02-28T10:04:22;10.13;;;7.18;;
17283;SDS011;8760;52.248;20.952;2023-02-28T10:07:03;10.55;;;6.90;;
17283;SDS011;8760;52.248;20.952;2023-02-28T10:09:42;10.63;;;7.15;;
17283;SDS011;8760;52.248;20.952;2023-02-28T10:12:11;9.85;;;7.05;;
17283;SDS011;8760;52.248;20.952;2023-02-28T10:14:40;10.38;;;6.57;;
17283;SDS011;8760;52.248;20.952;2023-02-28T10:17:11;10.43;;;7.05;;
17283;SDS011;8760;52.248;20.952;2023-02-28T10:19:44;8.07;;;6.15;;
17283;SDS011;8760;52.248;20.952;2023-02-28T10:22:19;9.85;;;6.97;;
17283;SDS011;8760;52.248;20.952;2023-02-28T10:24:49;13.60;;;6.93;;
17283;SDS011;8760;52.248;20.952;2023-02-28T10:27:18;7.78;;;6.35;;
17283;SDS011;8760;52.248;20.952;2023-02-28T10:29:47;8.75;;;6.70;;
17283;SDS011;8760;52.248;20.952;2023-02-28T10:32:16;7.82;;;6.25;;
17283;SDS011;8760;52.248;20.952;2023-02-28T10:34:45;9.07;;;6.82;;
17283;SDS011;8760;52.248;20.952;2023-02-28T10:37:20;10.98;;;6.63;;
17283;SDS011;8760;52.248;20.952;2023-02-28T10:39:47;8.05;;;6.78;;
17283;SDS011;8760;52.248;20.952;2023-02-28T10:42:21;8.48;;;6.95;;
17283;SDS011;8760;52.248;20.952;2023-02-28T10:45:04;9.80;;;6.53;;
17283;SDS011;8760;52.248;20.952;2023-02-28T10:47:33;19.67;;;7.45;;
17283;SDS011;8760;52.248;20.952;2023-02-28T10:50:01;11.32;;;8.02;;
17283;SDS011;8760;52.248;20.952;2023-02-28T10:52:37;9.15;;;6.57;;
17283;SDS011;8760;52.248;20.952;2023-02-28T10:55:15;12.80;;;6.60;;
17283;SDS011;8760;52.248;20.952;2023-02-28T10:57:47;12.25;;;7.30;;
17283;SDS011;8760;52.248;20.952;2023-02-28T11:00:15;7.82;;;6.53;;
17283;SDS011;8760;52.248;20.952;2023-02-28T11:02:44;7.95;;;6.93;;
17283;SDS011;8760;52.248;20.952;2023-02-28T11:05:22;9.32;;;7.05;;
17283;SDS011;8760;52.248;20.952;2023-02-28T11:07:56;10.20;;;7.28;;
17283;SDS011;8760;52.248;20.952;2023-02-28T11:10:30;10.63;;;7.60;;
17283;SDS011;8760;52.248;20.952;2023-02-28T11:13:00;13.98;;;6.93;;
17283;SDS011;8760;52.248;20.952;2023-02-28T11:15:29;10.77;;;7.53;;
17283;SDS011;8760;52.248;20.952;2023-02-28T11:17:57;13.48;;;8.00;;
17283;SDS011;8760;52.248;20.952;2023-02-28T11:20:26;11.85;;;7.70;;
17283;SDS011;8760;52.248;20.952;2023-02-28T11:22:57;10.30;;;7.60;;
17283;SDS011;8760;52.248;20.952;2023-02-28T11:25:28;10.00;;;7.75;;
17283;SDS011;8760;52.248;20.952;2023-02-28T11:27:57;9.80;;;7.30;;
17283;SDS011;8760;52.248;20.952;2023-02-28T11:30:27;10.13;;;7.90;;
17283;SDS011;8760;52.248;20.952;2023-02-28T11:32:57;12.15;;;7.20;;
17283;SDS011;8760;52.248;20.952;2023-02-28T11:35:26;9.27;;;7.88;;
17283;SDS011;8760;52.248;20.952;2023-02-28T11:37:57;11.05;;;7.60;;
17283;SDS011;8760;52.248;20.952;2023-02-28T11:40:27;13.65;;;7.63;;
17283;SDS011;8760;52.248;20.952;2023-02-28T11:43:01;11.02;;;7.63;;
17283;SDS011;8760;52.248;20.952;2023-02-28T11:45:42;9.27;;;7.68;;
17283;SDS011;8760;52.248;20.952;2023-02-28T11:48:17;8.57;;;7.35;;
17283;SDS011;8760;52.248;20.952;2023-02-28T11:50:57;10.43;;;7.53;;
17283;SDS011;8760;52.248;20.952;2023-02-28T11:53:39;9.48;;;7.82;;
17283;SDS011;8760;52.248;20.952;2023-02-28T11:56:17;12.02;;;7.93;;
17283;SDS011;8760;52.248;20.952;2023-02-28T11:58:52;11.00;;;7.57;;
17283;SDS011;8760;52.248;20.952;2023-02-28T12:01:32;12.35;;;7.65;;
17283;SDS011;8760;52.248;20.952;2023-02-28T12:04:16;11.05;;;7.32;;
17283;SDS011;8760;52.248;20.952;2023-02-28T12:06:52;9.57;;;8.25;;
17283;SDS011;8760;52.248;20.952;2023-02-28T12:09:38;11.13;;;7.88;;
17283;SDS011;8760;52.248;20.952;2023-02-28T12:12:17;10.63;;;7.93;;
17283;SDS011;8760;52.248;20.952;2023-02-28T12:14:54;12.35;;;8.00;;
17283;SDS011;8760;52.248;20.952;2023-02-28T12:17:35;10.10;;;8.25;;
17283;SDS011;8760;52.248;20.952;2023-02-28T12:20:10;11.75;;;8.23;;
17283;SDS011;8760;52.248;20.952;2023-02-28T12:22:46;12.50;;;8.30;;
17283;SDS011;8760;52.248;20.952;2023-02-28T12:25:32;15.90;;;8.00;;
17283;SDS011;8760;52.248;20.952;2023-02-28T12:28:12;12.70;;;8.60;;
17283;SDS011;8760;52.248;20.952;2023-02-28T12:30:41;13.13;;;8.00;;
17283;SDS011;8760;52.248;20.952;2023-02-28T12:33:16;14.17;;;9.17;;
17283;SDS011;8760;52.248;20.952;2023-02-28T12:35:47;12.00;;;7.97;;
17283;SDS011;8760;52.248;20.952;2023-02-28T12:38:18;10.20;;;8.00;;
17283;SDS011;8760;52.248;20.952;2023-02-28T12:40:50;14.57;;;8.83;;
17283;SDS011;8760;52.248;20.952;2023-02-28T12:43:20;14.00;;;9.17;;
17283;SDS011;8760;52.248;20.952;2023-02-28T12:45:52;11.80;;;8.80;;
17283;SDS011;8760;52.248;20.952;2023-02-28T12:48:24;13.97;;;9.00;;
17283;SDS011;8760;52.248;20.952;2023-02-28T12:50:56;11.82;;;8.70;;
17283;SDS011;8760;52.248;20.952;2023-02-28T12:53:26;11.93;;;8.80;;
17283;SDS011;8760;52.248;20.952;2023-02-28T12:56:02;11.43;;;8.60;;
17283;SDS011;8760;52.248;20.952;2023-02-28T12:58:39;9.95;;;8.23;;
17283;SDS011;8760;52.248;20.952;2023-02-28T13:07:36;10.88;;;8.45;;
17283;SDS011;8760;52.248;20.952;2023-02-28T13:10:37;12.73;;;8.27;;
17283;SDS011;8760;52.248;20.952;2023-02-28T13:13:14;12.38;;;7.75;;
17283;SDS011;8760;52.248;20.952;2023-02-28T13:15:56;11.40;;;7.55;;
17283;SDS011;8760;52.248;20.952;2023-02-28T13:18:29;10.23;;;7.72;;
17283;SDS011;8760;52.248;20.952;2023-02-28T13:21:03;10.63;;;8.38;;
17283;SDS011;8760;52.248;20.952;2023-02-28T13:23:37;10.73;;;7.85;;
17283;SDS011;8760;52.248;20.952;2023-02-28T13:26:21;10.20;;;7.70;;
17283;SDS011;8760;52.248;20.952;2023-02-28T13:34:49;9.52;;;7.10;;
17283;SDS011;8760;52.248;20.952;2023-02-28T13:38:17;9.40;;;7.40;;
17283;SDS011;8760;52.248;20.952;2023-02-28T13:43:59;10.30;;;7.60;;
17283;SDS011;8760;52.248;20.952;2023-02-28T13:46:29;11.17;;;8.03;;
17283;SDS011;8760;52.248;20.952;2023-02-28T13:48:56;15.27;;;8.80;;
17283;SDS011;8760;52.248;20.952;2023-02-28T13:51:44;13.47;;;8.23;;
17283;SDS011;8760;52.248;20.952;2023-02-28T13:54:20;11.50;;;7.83;;
17283;SDS011;8760;52.248;20.952;2023-02-28T13:57:11;11.63;;;7.83;;
17283;SDS011;8760;52.248;20.952;2023-02-28T13:59:50;11.23;;;7.13;;
17283;SDS011;8760;52.248;20.952;2023-02-28T14:05:35;11.07;;;8.10;;
17283;SDS011;8760;52.248;20.952;2023-02-28T14:08:05;11.37;;;7.43;;
17283;SDS011;8760;52.248;20.952;2023-02-28T14:10:42;10.33;;;6.97;;
17283;SDS011;8760;52.248;20.952;2023-02-28T14:13:12;12.40;;;7.00;;
17283;SDS011;8760;52.248;20.952;2023-02-28T14:16:04;16.90;;;7.80;;
17283;SDS011;8760;52.248;20.952;2023-02-28T14:18:33;12.23;;;6.90;;
17283;SDS011;8760;52.248;20.952;2023-02-28T14:21:08;12.70;;;7.47;;
17283;SDS011;8760;52.248;20.952;2023-02-28T14:23:50;7.97;;;6.80;;
17283;SDS011;8760;52.248;20.952;2023-02-28T14:27:02;11.57;;;7.70;;
17283;SDS011;8760;52.248;20.952;2023-02-28T14:30:01;16.33;;;8.27;;
17283;SDS011;8760;52.248;20.952;2023-02-28T14:32:51;12.50;;;7.80;;
17283;SDS011;8760;52.248;20.952;2023-02-28T14:35:38;12.00;;;7.60;;
17283;SDS011;8760;52.248;20.952;2023-02-28T14:38:14;12.70;;;7.72;;
17283;SDS011;8760;52.248;20.952;2023-02-28T14:40:46;11.40;;;7.97;;
17283;SDS011;8760;52.248;20.952;2023-02-28T14:43:19;10.27;;;7.40;;
17283;SDS011;8760;52.248;20.952;2023-02-28T14:45:49;10.43;;;7.60;;
17283;SDS011;8760;52.248;20.952;2023-02-28T14:48:19;12.17;;;7.70;;
17283;SDS011;8760;52.248;20.952;2023-02-28T14:50:51;12.33;;;7.73;;
17283;SDS011;8760;52.248;20.952;2023-02-28T14:53:19;8.07;;;7.27;;
17283;SDS011;8760;52.248;20.952;2023-02-28T14:55:48;12.10;;;7.77;;
17283;SDS011;8760;52.248;20.952;2023-02-28T14:58:22;10.77;;;7.43;;
17283;SDS011;8760;52.248;20.952;2023-02-28T15:00:51;11.23;;;6.77;;
17283;SDS011;8760;52.248;20.952;2023-02-28T15:03:22;12.23;;;7.40;;
17283;SDS011;8760;52.248;20.952;2023-02-28T15:05:51;14.37;;;7.70;;
17283;SDS011;8760;52.248;20.952;2023-02-28T15:08:19;11.57;;;6.87;;
17283;SDS011;8760;52.248;20.952;2023-02-28T15:10:50;15.00;;;8.30;;
17283;SDS011;8760;52.248;20.952;2023-02-28T15:13:20;10.73;;;7.70;;
17283;SDS011;8760;52.248;20.952;2023-02-28T15:15:49;10.73;;;7.57;;
17283;SDS011;8760;52.248;20.952;2023-02-28T15:18:26;19.37;;;7.70;;